createdAt,value
2019-03-09T00:06:23.687Z,8.25
2019-03-09T00:10:29.251Z,8.07
2019-03-09T00:14:34.586Z,7.92
2019-03-09T00:18:40.108Z,7.87
2019-03-09T00:22:47.598Z,7.65
2019-03-09T00:26:59.701Z,7.65
2019-03-09T00:31:42.884Z,7.56
2019-03-09T00:35:48.017Z,7.51
2019-03-09T00:39:53.104Z,7.48
2019-03-09T00:43:58.553Z,7.46
2019-03-09T00:48:03.863Z,7.32
2019-03-09T00:56:33.310Z,7.18
2019-03-09T01:01:17.979Z,7.18
2019-03-09T01:05:23.268Z,7.09
2019-03-09T01:09:47.431Z,6.95
2019-03-09T01:13:52.664Z,6.89
2019-03-09T01:17:57.830Z,6.90
2019-03-09T01:22:02.993Z,6.90
2019-03-09T01:26:08.187Z,6.94
2019-03-09T01:30:15.643Z,6.94
2019-03-09T01:34:20.831Z,6.87
2019-03-09T01:38:26.208Z,6.86
2019-03-09T01:42:31.431Z,6.81
2019-03-09T01:46:42.737Z,6.84
2019-03-09T01:55:17.432Z,6.84
2019-03-09T01:59:22.539Z,6.84
2019-03-09T02:03:27.707Z,6.85
2019-03-09T02:07:32.844Z,6.88
2019-03-09T02:11:37.975Z,6.91
2019-03-09T02:15:43.222Z,6.89
2019-03-09T02:20:07.672Z,6.92
2019-03-09T02:24:27.901Z,6.97
2019-03-09T02:29:12.442Z,7.04
2019-03-09T02:33:17.534Z,7.12
2019-03-09T02:37:22.644Z,7.13
2019-03-09T02:41:27.752Z,7.22
2019-03-09T02:45:33.298Z,7.24
2019-03-09T02:49:38.454Z,7.17
2019-03-09T02:53:43.642Z,7.13
2019-03-09T02:58:08.012Z,7.14
2019-03-09T03:02:39.733Z,7.14
2019-03-09T03:06:44.976Z,7.09
2019-03-09T03:10:50.113Z,7.10
2019-03-09T03:14:55.304Z,7.14
2019-03-09T03:19:00.404Z,7.17
2019-03-09T03:23:05.553Z,7.16
2019-03-09T03:31:41.291Z,7.18
2019-03-09T03:35:46.383Z,7.19
2019-03-09T03:39:51.602Z,7.24
2019-03-09T03:43:56.705Z,7.24
2019-03-09T03:48:01.822Z,7.31
2019-03-09T03:52:07.138Z,7.31
2019-03-09T03:56:12.345Z,7.36
2019-03-09T04:00:17.712Z,7.42
2019-03-09T04:04:22.877Z,7.43
2019-03-09T04:09:07.415Z,7.48
2019-03-09T04:13:14.160Z,7.46
2019-03-09T04:17:19.499Z,7.54
2019-03-09T04:21:27.705Z,7.54
2019-03-09T04:25:32.896Z,7.61
2019-03-09T04:29:39.041Z,7.68
2019-03-09T04:33:44.243Z,7.71
2019-03-09T04:37:49.381Z,7.77
2019-03-09T04:41:54.706Z,7.88
2019-03-09T04:45:59.948Z,7.99
2019-03-09T05:04:26.898Z,8.02
2019-03-09T05:08:53.758Z,8.00
2019-03-09T05:18:02.829Z,8.06
2019-03-09T05:22:07.925Z,8.11
2019-03-09T05:26:13.132Z,8.15
2019-03-09T05:31:14.594Z,8.18
2019-03-09T05:35:19.774Z,8.14
2019-03-09T05:39:41.194Z,8.12
2019-03-09T05:53:16.548Z,8.21
2019-03-09T06:02:15.990Z,8.13
2019-03-09T06:06:21.316Z,8.13
2019-03-09T06:10:26.494Z,8.24
2019-03-09T06:14:31.659Z,8.24
2019-03-09T06:18:37.109Z,8.23
2019-03-09T06:22:42.636Z,8.27
2019-03-09T06:26:48.590Z,8.32
2019-03-09T06:30:53.811Z,8.34
2019-03-09T06:34:59.139Z,8.47
2019-03-09T06:39:26.333Z,8.47
2019-03-09T06:43:31.620Z,8.56
2019-03-09T06:47:36.839Z,8.60
2019-03-09T06:51:42.274Z,8.57
2019-03-09T06:55:47.398Z,8.58
2019-03-09T06:59:52.608Z,8.65
2019-03-09T07:03:59.582Z,8.58
2019-03-09T07:08:04.714Z,8.56
2019-03-09T07:12:11.364Z,8.62
2019-03-09T07:16:28.106Z,8.67
2019-03-09T07:20:33.276Z,8.67
2019-03-09T07:24:38.442Z,8.71
2019-03-09T07:28:43.591Z,8.72
2019-03-09T07:35:22.860Z,8.88
2019-03-09T07:39:27.984Z,8.82
2019-03-09T07:43:33.156Z,8.85
2019-03-09T07:47:38.369Z,8.89
2019-03-09T07:51:43.511Z,8.93
2019-03-09T07:55:48.737Z,8.98
2019-03-09T07:59:54.360Z,9.08
2019-03-09T08:03:59.742Z,9.16
2019-03-09T08:08:04.933Z,9.23
2019-03-09T08:12:10.134Z,9.29
2019-03-09T08:16:15.322Z,9.35
2019-03-09T08:20:20.742Z,9.42
2019-03-09T08:24:44.838Z,9.43
2019-03-09T08:33:06.730Z,9.48
2019-03-09T08:37:24.238Z,9.50
2019-03-09T08:41:29.371Z,9.52
2019-03-09T08:45:36.268Z,9.49
2019-03-09T08:49:43.374Z,9.51
2019-03-09T08:53:48.559Z,9.51
2019-03-09T08:57:54.044Z,9.55
2019-03-09T09:01:59.335Z,9.60
2019-03-09T09:06:04.481Z,9.59
2019-03-09T09:10:10.068Z,9.67
2019-03-09T09:14:15.368Z,9.66
2019-03-09T09:18:20.625Z,9.63
2019-03-09T09:22:38.160Z,9.71
2019-03-09T09:26:41.267Z,9.77
2019-03-09T09:30:48.346Z,9.74
2019-03-09T09:34:58.267Z,9.77
2019-03-09T09:43:19.170Z,9.78
2019-03-09T09:47:24.560Z,9.85
2019-03-09T09:51:31.672Z,9.90
2019-03-09T09:55:36.801Z,9.93
2019-03-09T09:59:41.976Z,9.94
2019-03-09T10:03:47.132Z,10.03
2019-03-09T10:07:52.413Z,10.02
2019-03-09T10:11:57.558Z,9.98
2019-03-09T10:16:02.714Z,10.07
2019-03-09T10:20:08.223Z,10.15
2019-03-09T10:24:13.401Z,10.23
2019-03-09T10:28:18.656Z,10.25
2019-03-09T10:32:23.857Z,10.23
2019-03-09T10:36:29.072Z,10.18
2019-03-09T10:40:53.110Z,10.30
2019-03-09T10:44:58.437Z,10.23
2019-03-09T10:49:15.543Z,10.36
2019-03-09T10:53:20.645Z,10.47
2019-03-09T10:57:25.838Z,10.50
2019-03-09T11:01:51.791Z,10.49
2019-03-09T11:10:14.031Z,10.56
2019-03-09T11:14:33.403Z,10.65
2019-03-09T11:18:31.502Z,10.70
2019-03-09T11:26:56.089Z,11.04
2019-03-09T11:31:01.339Z,11.05
2019-03-09T11:35:07.309Z,11.14
2019-03-09T11:39:12.582Z,11.50
2019-03-09T11:43:17.763Z,11.53
2019-03-09T11:51:57.707Z,11.85
2019-03-09T11:56:02.837Z,11.89
2019-03-09T12:04:47.100Z,12.18
2019-03-09T12:38:57.519Z,11.26
2019-03-09T12:43:02.956Z,11.17
2019-03-09T12:47:08.163Z,11.04
2019-03-09T12:51:13.654Z,11.02
2019-03-09T12:55:19.003Z,11.10
2019-03-09T12:59:24.739Z,11.02
2019-03-09T13:03:30.143Z,11.03
2019-03-09T13:43:48.474Z,9.09
2019-03-09T14:46:18.155Z,10.22
2019-03-09T14:50:23.272Z,10.39
2019-03-09T14:54:28.455Z,10.21
2019-03-09T14:58:33.737Z,10.11
2019-03-09T15:02:38.989Z,11.48
2019-03-09T15:06:44.626Z,11.24
2019-03-09T15:10:49.750Z,11.40
2019-03-09T15:14:54.907Z,11.46
2019-03-09T15:19:00.066Z,11.07
2019-03-09T15:23:05.237Z,10.88
2019-03-09T15:27:10.625Z,10.54
2019-03-09T15:31:15.949Z,10.36
2019-03-09T15:35:22.141Z,10.48
2019-03-09T15:39:27.335Z,10.26
2019-03-09T15:43:32.534Z,11.12
2019-03-09T15:56:13.732Z,10.85
2019-03-09T16:00:38.103Z,10.56
2019-03-09T16:04:56.052Z,10.54
2019-03-09T16:08:56.171Z,11.16
2019-03-09T16:13:01.308Z,12.11
2019-03-09T16:17:10.949Z,12.64
2019-03-09T16:21:16.142Z,13.19
2019-03-09T16:25:22.664Z,12.85
2019-03-09T16:29:27.878Z,12.26
2019-03-09T16:33:34.489Z,12.32
2019-03-09T16:37:57.467Z,11.81
2019-03-09T16:42:02.660Z,12.16
2019-03-09T16:46:10.416Z,11.55
2019-03-09T16:50:17.510Z,11.15
2019-03-09T16:54:22.993Z,10.99
2019-03-09T16:58:31.022Z,10.75
2019-03-09T17:02:36.276Z,10.61
2019-03-09T17:06:41.765Z,10.66
2019-03-09T17:10:46.949Z,10.53
2019-03-09T17:14:52.165Z,10.57
2019-03-09T17:18:57.382Z,10.63
2019-03-09T17:23:17.288Z,10.62
2019-03-09T17:27:30.053Z,10.44
2019-03-09T17:31:35.262Z,10.63
2019-03-09T17:35:43.229Z,10.51
2019-03-09T17:39:49.021Z,10.48
2019-03-09T17:43:54.170Z,10.54
2019-03-09T17:47:59.358Z,10.31
2019-03-09T17:52:04.561Z,10.29
2019-03-09T17:56:09.646Z,10.24
2019-03-09T18:00:17.869Z,10.28
2019-03-09T18:04:23.216Z,10.16
2019-03-09T18:08:28.602Z,9.98
2019-03-09T18:12:36.442Z,9.88
2019-03-09T18:16:52.454Z,9.87
2019-03-09T18:20:50.264Z,9.76
2019-03-09T18:24:55.413Z,9.81
2019-03-09T18:29:00.574Z,9.72
2019-03-09T18:33:07.350Z,9.68
2019-03-09T18:37:22.615Z,9.63
2019-03-09T18:41:27.744Z,9.51
2019-03-09T18:45:32.932Z,9.57
2019-03-09T18:49:38.050Z,9.36
2019-03-09T18:53:43.343Z,9.43
2019-03-09T18:57:48.536Z,9.42
2019-03-09T19:01:55.269Z,9.27
2019-03-09T19:06:03.027Z,9.09
2019-03-09T19:10:09.881Z,9.11
2019-03-09T19:14:16.184Z,9.24
2019-03-09T19:18:21.436Z,9.12
2019-03-09T19:26:46.093Z,8.87
2019-03-09T19:31:39.035Z,8.86
2019-03-09T19:35:44.215Z,8.78
2019-03-09T19:40:08.435Z,8.61
2019-03-09T19:44:13.648Z,8.64
2019-03-09T19:48:18.784Z,8.61
2019-03-09T19:52:24.028Z,8.64
2019-03-09T19:56:29.534Z,8.52
2019-03-09T20:00:34.690Z,8.53
2019-03-09T20:04:39.890Z,8.57
2019-03-09T20:08:45.108Z,8.47
2019-03-09T20:13:11.906Z,8.39
2019-03-09T20:17:32.538Z,8.41
2019-03-09T20:21:37.668Z,8.44
2019-03-09T20:25:42.865Z,8.42
2019-03-09T20:29:48.382Z,8.39
2019-03-09T20:33:54.496Z,8.44
2019-03-09T20:37:59.671Z,8.45
2019-03-09T20:42:04.903Z,8.44
2019-03-09T20:46:10.070Z,8.56
2019-03-09T20:50:15.758Z,8.54
2019-03-09T20:54:22.419Z,8.51
2019-03-09T20:58:27.515Z,8.56
2019-03-09T21:02:32.670Z,8.57
2019-03-09T21:06:37.881Z,8.64
2019-03-09T21:10:43.097Z,8.69
2019-03-09T21:14:48.296Z,8.72
2019-03-09T21:23:10.203Z,8.89
2019-03-09T21:27:15.399Z,8.86
2019-03-09T21:31:20.841Z,8.81
2019-03-09T21:35:27.620Z,8.89
2019-03-09T21:39:32.915Z,8.78
2019-03-09T21:43:39.416Z,8.67
2019-03-09T21:47:56.668Z,8.64
2019-03-09T21:52:01.798Z,8.58
2019-03-09T21:56:08.624Z,8.49
2019-03-09T22:00:32.983Z,8.51
2019-03-09T22:04:57.180Z,8.52
2019-03-09T22:09:02.323Z,8.49
2019-03-09T22:17:39.538Z,8.52
2019-03-09T22:21:44.731Z,8.53
2019-03-09T22:25:49.937Z,8.42
2019-03-09T22:29:55.053Z,8.44
2019-03-09T22:34:00.226Z,8.56
2019-03-09T22:38:24.421Z,8.62
2019-03-09T22:42:29.642Z,8.62
2019-03-09T22:46:36.332Z,8.70
2019-03-09T22:50:42.287Z,8.73
2019-03-09T22:59:23.961Z,8.62
2019-03-09T23:03:29.147Z,8.61
2019-03-09T23:07:34.454Z,8.55
2019-03-09T23:11:39.609Z,8.53
2019-03-09T23:15:44.748Z,8.52
2019-03-09T23:19:49.869Z,8.50
2019-03-09T23:23:55.005Z,8.44
2019-03-09T23:28:00.230Z,8.39
2019-03-09T23:32:05.688Z,8.33
2019-03-09T23:40:27.720Z,8.34
2019-03-09T23:44:32.820Z,8.28
2019-03-09T23:48:37.930Z,8.28
2019-03-09T23:53:27.860Z,8.33
